sensor_id;sensor_type;location;lat;lon;timestamp;pressure;altitude;pressure_sealevel;temperature;humidity
74561;BME280;62979;55.720;37.606;2023-05-10T00:01:48;100789.84;;;13.58;28.37
74561;BME280;62979;55.720;37.606;2023-05-10T00:04:15;100791.56;;;13.58;28.33
74561;BME280;62979;55.720;37.606;2023-05-10T00:06:42;100788.22;;;13.49;28.22
74561;BME280;62979;55.720;37.606;2023-05-10T00:09:10;100789.06;;;13.52;28.35
74561;BME280;62979;55.720;37.606;2023-05-10T00:11:37;100785.69;;;13.46;28.54
74561;BME280;62979;55.720;37.606;2023-05-10T00:14:04;100786.53;;;13.47;28.42
74561;BME280;62979;55.720;37.606;2023-05-10T00:16:31;100776.09;;;13.42;28.39
74561;BME280;62979;55.720;37.606;2023-05-10T00:18:58;100794.44;;;13.45;28.58
74561;BME280;62979;55.720;37.606;2023-05-10T00:21:25;100792.78;;;13.40;28.73
74561;BME280;62979;55.720;37.606;2023-05-10T00:23:53;100798.13;;;13.35;28.80
74561;BME280;62979;55.720;37.606;2023-05-10T00:26:21;100788.63;;;13.28;29.78
74561;BME280;62979;55.720;37.606;2023-05-10T00:28:48;100795.59;;;13.31;30.48
74561;BME280;62979;55.720;37.606;2023-05-10T00:31:15;100785.19;;;13.23;28.90
74561;BME280;62979;55.720;37.606;2023-05-10T00:33:42;100786.94;;;13.22;29.13
74561;BME280;62979;55.720;37.606;2023-05-10T00:36:09;100787.75;;;13.27;28.79
74561;BME280;62979;55.720;37.606;2023-05-10T00:38:36;100789.53;;;13.27;28.91
74561;BME280;62979;55.720;37.606;2023-05-10T00:41:03;100787.75;;;13.26;28.80
74561;BME280;62979;55.720;37.606;2023-05-10T00:43:31;100779.88;;;13.26;28.80
74561;BME280;62979;55.720;37.606;2023-05-10T00:45:58;100793.81;;;13.33;28.79
74561;BME280;62979;55.720;37.606;2023-05-10T00:48:26;100795.66;;;13.27;29.99
74561;BME280;62979;55.720;37.606;2023-05-10T00:50:53;100799.19;;;13.23;30.43
74561;BME280;62979;55.720;37.606;2023-05-10T00:53:20;100795.78;;;13.18;30.40
74561;BME280;62979;55.720;37.606;2023-05-10T00:55:48;100795.84;;;13.15;30.53
74561;BME280;62979;55.720;37.606;2023-05-10T00:58:15;100796.72;;;13.14;30.30
74561;BME280;62979;55.720;37.606;2023-05-10T01:00:46;100787.03;;;13.16;28.94
74561;BME280;62979;55.720;37.606;2023-05-10T01:03:13;100776.75;;;13.04;29.16
74561;BME280;62979;55.720;37.606;2023-05-10T01:05:40;100788.03;;;13.09;29.31
74561;BME280;62979;55.720;37.606;2023-05-10T01:08:07;100787.16;;;13.10;29.38
74561;BME280;62979;55.720;37.606;2023-05-10T01:10:34;100782.78;;;13.09;29.04
74561;BME280;62979;55.720;37.606;2023-05-10T01:13:02;100794.19;;;13.08;30.61
74561;BME280;62979;55.720;37.606;2023-05-10T01:15:29;100792.50;;;13.04;28.45
74561;BME280;62979;55.720;37.606;2023-05-10T01:17:59;100791.84;;;12.91;29.24
74561;BME280;62979;55.720;37.606;2023-05-10T01:20:29;100781.34;;;12.91;28.69
74561;BME280;62979;55.720;37.606;2023-05-10T01:23:25;100778.81;;;12.87;30.37
74561;BME280;62979;55.720;37.606;2023-05-10T01:26:33;100787.59;;;12.82;30.65
74561;BME280;62979;55.720;37.606;2023-05-10T01:32:41;100784.91;;;12.87;29.13
74561;BME280;62979;55.720;37.606;2023-05-10T01:35:17;100780.66;;;12.81;28.98
74561;BME280;62979;55.720;37.606;2023-05-10T01:37:59;100786.69;;;12.87;28.90
74561;BME280;62979;55.720;37.606;2023-05-10T01:40:38;100783.22;;;12.84;28.93
74561;BME280;62979;55.720;37.606;2023-05-10T01:43:17;100777.09;;;12.82;30.22
74561;BME280;62979;55.720;37.606;2023-05-10T01:45:57;100784.09;;;12.85;30.39
74561;BME280;62979;55.720;37.606;2023-05-10T01:48:37;100778.81;;;12.87;29.46
74561;BME280;62979;55.720;37.606;2023-05-10T01:51:13;100778.00;;;12.83;29.88
74561;BME280;62979;55.720;37.606;2023-05-10T01:53:46;100778.00;;;12.83;29.91
74561;BME280;62979;55.720;37.606;2023-05-10T01:56:15;100780.69;;;12.78;30.25
74561;BME280;62979;55.720;37.606;2023-05-10T01:58:47;100782.47;;;12.76;30.52
74561;BME280;62979;55.720;37.606;2023-05-10T02:01:17;100779.00;;;12.74;30.36
74561;BME280;62979;55.720;37.606;2023-05-10T02:03:50;100781.66;;;12.73;30.15
74561;BME280;62979;55.720;37.606;2023-05-10T02:06:20;100784.25;;;12.74;30.37
74561;BME280;62979;55.720;37.606;2023-05-10T02:08:49;100779.00;;;12.74;29.89
74561;BME280;62979;55.720;37.606;2023-05-10T02:11:20;100777.22;;;12.76;30.09
74561;BME280;62979;55.720;37.606;2023-05-10T02:13:50;100775.56;;;12.71;29.73
74561;BME280;62979;55.720;37.606;2023-05-10T02:16:23;100772.16;;;12.64;29.68
74561;BME280;62979;55.720;37.606;2023-05-10T02:18:54;100765.22;;;12.60;29.48
74561;BME280;62979;55.720;37.606;2023-05-10T02:21:24;100774.81;;;12.62;29.85
74561;BME280;62979;55.720;37.606;2023-05-10T02:23:52;100767.00;;;12.58;30.33
74561;BME280;62979;55.720;37.606;2023-05-10T02:26:22;100772.16;;;12.64;30.07
74561;BME280;62979;55.720;37.606;2023-05-10T02:28:52;100771.31;;;12.63;30.14
74561;BME280;62979;55.720;37.606;2023-05-10T02:31:20;100771.34;;;12.60;29.35
74561;BME280;62979;55.720;37.606;2023-05-10T02:33:49;100773.22;;;12.54;29.91
74561;BME280;62979;55.720;37.606;2023-05-10T02:36:19;100766.19;;;12.54;30.08
74561;BME280;62979;55.720;37.606;2023-05-10T02:38:49;100768.81;;;12.56;30.59
74561;BME280;62979;55.720;37.606;2023-05-10T02:41:20;100762.66;;;12.58;31.10
74561;BME280;62979;55.720;37.606;2023-05-10T02:43:50;100763.50;;;12.59;29.92
74561;BME280;62979;55.720;37.606;2023-05-10T02:46:19;100768.69;;;12.62;30.05
74561;BME280;62979;55.720;37.606;2023-05-10T02:48:46;100763.44;;;12.62;29.80
74561;BME280;62979;55.720;37.606;2023-05-10T02:51:15;100750.38;;;12.59;30.32
74561;BME280;62979;55.720;37.606;2023-05-10T02:53:47;100770.41;;;12.66;29.97
74561;BME280;62979;55.720;37.606;2023-05-10T02:56:33;100757.41;;;12.58;29.46
74561;BME280;62979;55.720;37.606;2023-05-10T02:59:02;100762.66;;;12.58;29.80
74561;BME280;62979;55.720;37.606;2023-05-10T03:01:29;100759.06;;;12.62;29.67
74561;BME280;62979;55.720;37.606;2023-05-10T03:03:56;100764.34;;;12.61;29.39
74561;BME280;62979;55.720;37.606;2023-05-10T03:06:24;100762.66;;;12.58;29.54
74561;BME280;62979;55.720;37.606;2023-05-10T03:08:51;100753.19;;;12.47;29.66
74561;BME280;62979;55.720;37.606;2023-05-10T03:11:35;100755.81;;;12.47;29.92
74561;BME280;62979;55.720;37.606;2023-05-10T03:14:20;100751.50;;;12.44;29.96
74561;BME280;62979;55.720;37.606;2023-05-10T03:16:56;100747.09;;;12.45;29.77
74561;BME280;62979;55.720;37.606;2023-05-10T03:19:31;100751.50;;;12.42;29.73
74561;BME280;62979;55.720;37.606;2023-05-10T03:22:08;100750.59;;;12.45;29.87
74561;BME280;62979;55.720;37.606;2023-05-10T03:24:41;100748.16;;;12.34;29.81
74561;BME280;62979;55.720;37.606;2023-05-10T03:27:10;100729.16;;;12.17;29.96
74561;BME280;62979;55.720;37.606;2023-05-10T03:29:39;100748.03;;;12.40;29.93
74561;BME280;62979;55.720;37.606;2023-05-10T03:32:06;100752.25;;;12.51;30.16
74561;BME280;62979;55.720;37.606;2023-05-10T03:34:33;100754.84;;;12.54;29.73
74561;BME280;62979;55.720;37.606;2023-05-10T03:37:01;100748.75;;;12.52;29.71
74561;BME280;62979;55.720;37.606;2023-05-10T03:39:29;100753.03;;;12.57;29.87
74561;BME280;62979;55.720;37.606;2023-05-10T03:41:56;100753.13;;;12.51;29.66
74561;BME280;62979;55.720;37.606;2023-05-10T03:44:23;100725.38;;;12.36;29.71
74561;BME280;62979;55.720;37.606;2023-05-10T03:46:50;100757.31;;;12.63;29.77
74561;BME280;62979;55.720;37.606;2023-05-10T03:49:16;100758.16;;;12.65;29.60
74561;BME280;62979;55.720;37.606;2023-05-10T03:51:43;100757.41;;;12.58;29.99
74561;BME280;62979;55.720;37.606;2023-05-10T03:54:10;100760.75;;;12.67;29.88
74561;BME280;62979;55.720;37.606;2023-05-10T03:56:38;100729.53;;;12.50;30.03
74561;BME280;62979;55.720;37.606;2023-05-10T03:59:05;100752.88;;;12.68;29.77
74561;BME280;62979;55.720;37.606;2023-05-10T04:01:34;100756.50;;;12.58;29.81
74561;BME280;62979;55.720;37.606;2023-05-10T04:04:01;100746.97;;;12.54;30.10
74561;BME280;62979;55.720;37.606;2023-05-10T04:06:27;100750.25;;;12.68;29.76
74561;BME280;62979;55.720;37.606;2023-05-10T04:08:54;100744.03;;;12.72;29.93
74561;BME280;62979;55.720;37.606;2023-05-10T04:11:21;100750.97;;;12.76;30.01
74561;BME280;62979;55.720;37.606;2023-05-10T04:13:51;100750.97;;;12.78;29.77
74561;BME280;62979;55.720;37.606;2023-05-10T04:16:18;100740.34;;;12.85;29.67
74561;BME280;62979;55.720;37.606;2023-05-10T04:18:45;100749.00;;;12.91;29.64
74561;BME280;62979;55.720;37.606;2023-05-10T04:21:12;100740.06;;;13.01;29.87
74561;BME280;62979;55.720;37.606;2023-05-10T04:23:39;100747.72;;;13.12;30.08
74561;BME280;62979;55.720;37.606;2023-05-10T04:26:06;100745.03;;;13.16;30.46
74561;BME280;62979;55.720;37.606;2023-05-10T04:28:33;100739.81;;;13.15;30.30
74561;BME280;62979;55.720;37.606;2023-05-10T04:31:04;100745.72;;;13.27;29.95
74561;BME280;62979;55.720;37.606;2023-05-10T04:33:32;100736.94;;;13.28;30.40
74561;BME280;62979;55.720;37.606;2023-05-10T04:35:59;100745.53;;;13.38;29.88
74561;BME280;62979;55.720;37.606;2023-05-10T04:38:27;100741.03;;;13.43;30.28
74561;BME280;62979;55.720;37.606;2023-05-10T04:40:54;100740.00;;;13.54;29.17
74561;BME280;62979;55.720;37.606;2023-05-10T04:43:21;100740.78;;;13.56;29.18
74561;BME280;62979;55.720;37.606;2023-05-10T04:45:48;100737.19;;;13.61;29.15
74561;BME280;62979;55.720;37.606;2023-05-10T04:48:16;100729.16;;;13.67;28.74
74561;BME280;62979;55.720;37.606;2023-05-10T04:50:43;100728.28;;;13.68;28.78
74561;BME280;62979;55.720;37.606;2023-05-10T04:53:10;100718.53;;;13.74;29.10
74561;BME280;62979;55.720;37.606;2023-05-10T04:55:38;100734.13;;;13.83;29.59
74561;BME280;62979;55.720;37.606;2023-05-10T04:58:04;100728.69;;;13.90;28.44
74561;BME280;62979;55.720;37.606;2023-05-10T05:00:33;100719.88;;;13.93;28.43
74561;BME280;62979;55.720;37.606;2023-05-10T05:03:00;100716.25;;;13.99;28.26
74561;BME280;62979;55.720;37.606;2023-05-10T05:05:28;100730.97;;;14.07;28.60
74561;BME280;62979;55.720;37.606;2023-05-10T05:07:55;100730.06;;;14.08;27.68
74561;BME280;62979;55.720;37.606;2023-05-10T05:10:23;100715.22;;;14.04;28.04
74561;BME280;62979;55.720;37.606;2023-05-10T05:12:50;100721.13;;;14.16;27.83
74561;BME280;62979;55.720;37.606;2023-05-10T05:15:17;100719.16;;;14.25;27.69
74561;BME280;62979;55.720;37.606;2023-05-10T05:17:44;100717.44;;;14.24;27.21
74561;BME280;62979;55.720;37.606;2023-05-10T05:20:11;100718.91;;;13.97;27.14
74561;BME280;62979;55.720;37.606;2023-05-10T05:22:39;100708.44;;;13.94;27.47
74561;BME280;62979;55.720;37.606;2023-05-10T05:25:07;100708.13;;;14.09;27.26
74561;BME280;62979;55.720;37.606;2023-05-10T05:27:35;100708.94;;;14.11;27.13
74561;BME280;62979;55.720;37.606;2023-05-10T05:30:02;100709.53;;;14.24;27.38
74561;BME280;62979;55.720;37.606;2023-05-10T05:32:29;100710.75;;;14.47;27.34
74561;BME280;62979;55.720;37.606;2023-05-10T05:34:56;100696.50;;;14.55;27.13
74561;BME280;62979;55.720;37.606;2023-05-10T05:37:23;100702.63;;;14.58;27.14
74561;BME280;62979;55.720;37.606;2023-05-10T05:39:51;100706.75;;;14.68;27.05
74561;BME280;62979;55.720;37.606;2023-05-10T05:42:19;100708.41;;;14.72;26.90
74561;BME280;62979;55.720;37.606;2023-05-10T05:44:46;100706.72;;;14.69;26.97
74561;BME280;62979;55.720;37.606;2023-05-10T05:47:14;100698.84;;;14.68;26.85
74561;BME280;62979;55.720;37.606;2023-05-10T05:49:41;100695.84;;;14.83;26.53
74561;BME280;62979;55.720;37.606;2023-05-10T05:52:10;100694.69;;;14.93;26.65
74561;BME280;62979;55.720;37.606;2023-05-10T05:54:37;100696.41;;;14.94;26.66
74561;BME280;62979;55.720;37.606;2023-05-10T05:57:06;100698.47;;;15.16;26.60
74561;BME280;62979;55.720;37.606;2023-05-10T05:59:33;100697.38;;;15.25;25.77
74561;BME280;62979;55.720;37.606;2023-05-10T06:02:00;100692.44;;;15.12;26.01
74561;BME280;62979;55.720;37.606;2023-05-10T06:04:27;100697.94;;;15.03;26.00
74561;BME280;62979;55.720;37.606;2023-05-10T06:06:54;100686.88;;;14.90;25.67
74561;BME280;62979;55.720;37.606;2023-05-10T06:09:20;100683.16;;;14.97;25.99
74561;BME280;62979;55.720;37.606;2023-05-10T06:11:49;100683.78;;;15.07;25.68
74561;BME280;62979;55.720;37.606;2023-05-10T06:14:17;100692.56;;;15.08;25.51
74561;BME280;62979;55.720;37.606;2023-05-10T06:16:44;100686.22;;;15.15;25.71
74561;BME280;62979;55.720;37.606;2023-05-10T06:19:10;100690.94;;;15.33;25.50
74561;BME280;62979;55.720;37.606;2023-05-10T06:21:37;100687.84;;;15.50;25.04
74561;BME280;62979;55.720;37.606;2023-05-10T06:24:05;100682.75;;;15.44;24.84
74561;BME280;62979;55.720;37.606;2023-05-10T06:26:33;100689.03;;;15.38;24.96
74561;BME280;62979;55.720;37.606;2023-05-10T06:29:00;100682.75;;;15.44;24.73
74561;BME280;62979;55.720;37.606;2023-05-10T06:31:28;100663.28;;;15.48;24.56
74561;BME280;62979;55.720;37.606;2023-05-10T06:33:55;100674.03;;;15.42;24.53
74561;BME280;62979;55.720;37.606;2023-05-10T06:36:23;100684.59;;;15.40;24.55
74561;BME280;62979;55.720;37.606;2023-05-10T06:38:51;100681.03;;;15.12;24.25
74561;BME280;62979;55.720;37.606;2023-05-10T06:41:18;100674.16;;;15.37;24.48
74561;BME280;62979;55.720;37.606;2023-05-10T06:43:45;100675.06;;;15.36;24.77
74561;BME280;62979;55.720;37.606;2023-05-10T06:46:12;100674.50;;;15.56;24.08
74561;BME280;62979;55.720;37.606;2023-05-10T06:48:40;100669.50;;;15.77;24.22
74561;BME280;62979;55.720;37.606;2023-05-10T06:51:07;100669.72;;;15.99;24.32
74561;BME280;62979;55.720;37.606;2023-05-10T06:53:34;100645.34;;;15.91;23.94
74561;BME280;62979;55.720;37.606;2023-05-10T06:56:01;100666.44;;;16.19;23.62
74561;BME280;62979;55.720;37.606;2023-05-10T06:58:28;100668.09;;;16.21;23.32
74561;BME280;62979;55.720;37.606;2023-05-10T07:01:01;100663.06;;;16.42;23.39
74561;BME280;62979;55.720;37.606;2023-05-10T07:03:29;100667.38;;;16.44;23.23
74561;BME280;62979;55.720;37.606;2023-05-10T07:06:01;100656.94;;;16.41;22.79
74561;BME280;62979;55.720;37.606;2023-05-10T07:08:29;100665.06;;;16.60;23.19
74561;BME280;62979;55.720;37.606;2023-05-10T07:11:01;100653.94;;;16.77;23.06
74561;BME280;62979;55.720;37.606;2023-05-10T07:13:29;100668.22;;;16.72;23.07
74561;BME280;62979;55.720;37.606;2023-05-10T07:15:57;100662.34;;;16.90;22.39
74561;BME280;62979;55.720;37.606;2023-05-10T07:18:24;100655.81;;;17.00;22.04
74561;BME280;62979;55.720;37.606;2023-05-10T07:20:51;100658.13;;;17.09;22.02
74561;BME280;62979;55.720;37.606;2023-05-10T07:23:19;100652.94;;;17.31;22.48
74561;BME280;62979;55.720;37.606;2023-05-10T07:25:46;100657.00;;;17.40;21.85
74561;BME280;62979;55.720;37.606;2023-05-10T07:28:14;100654.81;;;17.51;21.39
74561;BME280;62979;55.720;37.606;2023-05-10T07:30:43;100643.56;;;17.46;20.86
74561;BME280;62979;55.720;37.606;2023-05-10T07:33:12;100636.06;;;17.58;20.73
74561;BME280;62979;55.720;37.606;2023-05-10T07:35:40;100635.72;;;17.67;21.12
74561;BME280;62979;55.720;37.606;2023-05-10T07:38:07;100646.59;;;17.83;20.99
74561;BME280;62979;55.720;37.606;2023-05-10T07:40:38;100641.38;;;18.03;20.80
74561;BME280;62979;55.720;37.606;2023-05-10T07:43:05;100646.59;;;18.05;21.00
74561;BME280;62979;55.720;37.606;2023-05-10T07:45:33;100639.44;;;18.07;20.47
74561;BME280;62979;55.720;37.606;2023-05-10T07:48:00;100642.03;;;18.08;20.63
74561;BME280;62979;55.720;37.606;2023-05-10T07:50:27;100638.84;;;18.22;20.01
74561;BME280;62979;55.720;37.606;2023-05-10T07:52:54;100638.06;;;18.40;20.32
74561;BME280;62979;55.720;37.606;2023-05-10T07:55:21;100641.50;;;18.43;19.94
74561;BME280;62979;55.720;37.606;2023-05-10T07:57:49;100638.19;;;18.37;19.72
74561;BME280;62979;55.720;37.606;2023-05-10T08:00:18;100626.94;;;18.53;20.44
74561;BME280;62979;55.720;37.606;2023-05-10T08:02:46;100629.41;;;18.57;20.45
74561;BME280;62979;55.720;37.606;2023-05-10T08:05:13;100625.28;;;18.93;21.38
74561;BME280;62979;55.720;37.606;2023-05-10T08:07:40;100628.72;;;19.14;20.10
74561;BME280;62979;55.720;37.606;2023-05-10T08:10:09;100621.81;;;19.30;20.52
74561;BME280;62979;55.720;37.606;2023-05-10T08:12:37;100619.44;;;19.43;20.84
74561;BME280;62979;55.720;37.606;2023-05-10T08:15:06;100615.44;;;19.34;20.05
74561;BME280;62979;55.720;37.606;2023-05-10T08:17:35;100610.00;;;19.37;19.92
74561;BME280;62979;55.720;37.606;2023-05-10T08:20:02;100620.34;;;19.43;19.31
74561;BME280;62979;55.720;37.606;2023-05-10T08:22:29;100611.13;;;19.51;19.40
74561;BME280;62979;55.720;37.606;2023-05-10T08:24:56;100598.06;;;19.65;19.24
74561;BME280;62979;55.720;37.606;2023-05-10T08:27:23;100601.66;;;19.64;19.77
74561;BME280;62979;55.720;37.606;2023-05-10T08:29:50;100599.66;;;19.50;19.57
74561;BME280;62979;55.720;37.606;2023-05-10T08:32:18;100604.97;;;19.31;19.33
74561;BME280;62979;55.720;37.606;2023-05-10T08:34:45;100596.47;;;19.04;19.31
74561;BME280;62979;55.720;37.606;2023-05-10T08:37:12;100589.41;;;19.23;19.41
74561;BME280;62979;55.720;37.606;2023-05-10T08:39:39;100601.22;;;19.16;19.14
74561;BME280;62979;55.720;37.606;2023-05-10T08:42:06;100599.66;;;19.31;19.08
74561;BME280;62979;55.720;37.606;2023-05-10T08:44:36;100598.53;;;19.37;19.39
74561;BME280;62979;55.720;37.606;2023-05-10T08:47:05;100587.13;;;19.35;18.89
74561;BME280;62979;55.720;37.606;2023-05-10T08:49:34;100582.44;;;19.21;19.46
74561;BME280;62979;55.720;37.606;2023-05-10T08:52:04;100590.72;;;19.34;19.46
74561;BME280;62979;55.720;37.606;2023-05-10T08:54:32;100579.38;;;19.49;19.27
74561;BME280;62979;55.720;37.606;2023-05-10T08:57:00;100592.91;;;19.62;18.92
74561;BME280;62979;55.720;37.606;2023-05-10T08:59:28;100584.25;;;19.77;19.26
74561;BME280;62979;55.720;37.606;2023-05-10T09:01:56;100582.78;;;19.89;19.13
74561;BME280;62979;55.720;37.606;2023-05-10T09:04:24;100570.28;;;19.74;18.79
74561;BME280;62979;55.720;37.606;2023-05-10T09:06:53;100577.16;;;19.78;19.43
74561;BME280;62979;55.720;37.606;2023-05-10T09:09:21;100569.53;;;19.70;20.17
74561;BME280;62979;55.720;37.606;2023-05-10T09:11:48;100574.00;;;19.70;19.10
74561;BME280;62979;55.720;37.606;2023-05-10T09:14:15;100559.91;;;19.86;19.67
74561;BME280;62979;55.720;37.606;2023-05-10T09:16:43;100571.09;;;19.93;19.78
74561;BME280;62979;55.720;37.606;2023-05-10T09:19:10;100569.84;;;19.83;19.57
74561;BME280;62979;55.720;37.606;2023-05-10T09:21:37;100565.13;;;19.71;18.97
74561;BME280;62979;55.720;37.606;2023-05-10T09:24:07;100555.13;;;20.12;18.89
74561;BME280;62979;55.720;37.606;2023-05-10T09:26:35;100549.69;;;20.31;18.46
74561;BME280;62979;55.720;37.606;2023-05-10T09:29:11;100550.66;;;20.30;19.08
74561;BME280;62979;55.720;37.606;2023-05-10T09:31:46;100553.09;;;20.35;19.25
74561;BME280;62979;55.720;37.606;2023-05-10T09:34:17;100556.34;;;20.40;18.88
74561;BME280;62979;55.720;37.606;2023-05-10T09:36:52;100552.50;;;20.80;18.37
74561;BME280;62979;55.720;37.606;2023-05-10T09:39:30;100533.59;;;21.02;17.95
74561;BME280;62979;55.720;37.606;2023-05-10T09:41:58;100541.03;;;21.45;17.86
74561;BME280;62979;55.720;37.606;2023-05-10T09:44:26;100535.16;;;21.70;17.14
74561;BME280;62979;55.720;37.606;2023-05-10T09:46:53;100533.78;;;22.09;17.34
74561;BME280;62979;55.720;37.606;2023-05-10T09:49:22;100518.56;;;22.27;16.92
74561;BME280;62979;55.720;37.606;2023-05-10T09:52:00;100530.53;;;22.93;16.30
74561;BME280;62979;55.720;37.606;2023-05-10T09:54:30;100523.47;;;23.20;16.33
74561;BME280;62979;55.720;37.606;2023-05-10T09:56:58;100531.53;;;23.60;16.67
74561;BME280;62979;55.720;37.606;2023-05-10T09:59:26;100523.41;;;24.16;16.12
74561;BME280;62979;55.720;37.606;2023-05-10T10:01:56;100523.22;;;24.32;15.16
74561;BME280;62979;55.720;37.606;2023-05-10T10:04:24;100519.50;;;23.95;16.32
74561;BME280;62979;55.720;37.606;2023-05-10T10:06:59;100516.59;;;23.58;15.78
74561;BME280;62979;55.720;37.606;2023-05-10T10:09:29;100516.69;;;23.29;16.26
74561;BME280;62979;55.720;37.606;2023-05-10T10:11:56;100517.78;;;22.98;15.95
74561;BME280;62979;55.720;37.606;2023-05-10T10:14:24;100510.13;;;22.77;16.01
74561;BME280;62979;55.720;37.606;2023-05-10T10:16:51;100502.44;;;22.58;16.46
74561;BME280;62979;55.720;37.606;2023-05-10T10:19:19;100502.53;;;22.71;16.50
74561;BME280;62979;55.720;37.606;2023-05-10T10:21:46;100507.06;;;23.26;15.90
74561;BME280;62979;55.720;37.606;2023-05-10T10:24:13;100500.16;;;23.78;16.29
74561;BME280;62979;55.720;37.606;2023-05-10T10:26:42;100497.50;;;23.37;15.49
74561;BME280;62979;55.720;37.606;2023-05-10T10:29:20;100501.22;;;23.34;16.06
74561;BME280;62979;55.720;37.606;2023-05-10T10:31:57;100497.25;;;23.27;15.67
74561;BME280;62979;55.720;37.606;2023-05-10T10:34:34;100489.81;;;23.18;15.73
74561;BME280;62979;55.720;37.606;2023-05-10T10:37:04;100467.94;;;22.84;15.84
74561;BME280;62979;55.720;37.606;2023-05-10T10:39:32;100486.94;;;23.21;16.22
74561;BME280;62979;55.720;37.606;2023-05-10T10:42:04;100484.38;;;23.61;16.08
74561;BME280;62979;55.720;37.606;2023-05-10T10:44:36;100491.03;;;24.85;15.37
74561;BME280;62979;55.720;37.606;2023-05-10T10:47:11;100468.88;;;25.56;14.80
74561;BME280;62979;55.720;37.606;2023-05-10T10:50:03;100472.09;;;25.97;13.57
74561;BME280;62979;55.720;37.606;2023-05-10T10:52:32;100470.13;;;26.34;13.89
74561;BME280;62979;55.720;37.606;2023-05-10T10:55:02;100464.66;;;26.92;13.86
74561;BME280;62979;55.720;37.606;2023-05-10T10:57:42;100468.09;;;26.83;13.53
74561;BME280;62979;55.720;37.606;2023-05-10T11:00:25;100459.28;;;26.47;13.94
74561;BME280;62979;55.720;37.606;2023-05-10T11:02:55;100466.97;;;25.94;14.48
74561;BME280;62979;55.720;37.606;2023-05-10T11:05:45;100466.28;;;25.44;14.81
74561;BME280;62979;55.720;37.606;2023-05-10T11:08:15;100479.31;;;25.11;14.89
74561;BME280;62979;55.720;37.606;2023-05-10T11:10:51;100462.59;;;24.32;14.88
74561;BME280;62979;55.720;37.606;2023-05-10T11:13:31;100457.16;;;24.34;15.02
74561;BME280;62979;55.720;37.606;2023-05-10T11:16:09;100452.63;;;24.09;15.22
74561;BME280;62979;55.720;37.606;2023-05-10T11:18:52;100462.31;;;23.84;14.97
74561;BME280;62979;55.720;37.606;2023-05-10T11:21:20;100454.47;;;23.68;15.32
74561;BME280;62979;55.720;37.606;2023-05-10T11:23:49;100455.03;;;23.74;15.02
74561;BME280;62979;55.720;37.606;2023-05-10T11:26:17;100453.69;;;23.26;15.38
74561;BME280;62979;55.720;37.606;2023-05-10T11:28:49;100453.69;;;23.26;15.86
74561;BME280;62979;55.720;37.606;2023-05-10T11:31:19;100440.44;;;23.25;16.08
74561;BME280;62979;55.720;37.606;2023-05-10T11:33:48;100441.41;;;23.24;15.87
74561;BME280;62979;55.720;37.606;2023-05-10T11:36:17;100441.81;;;23.03;16.99
74561;BME280;62979;55.720;37.606;2023-05-10T11:38:47;100437.03;;;22.94;16.85
74561;BME280;62979;55.720;37.606;2023-05-10T11:41:16;100428.06;;;22.68;16.87
74561;BME280;62979;55.720;37.606;2023-05-10T11:43:50;100436.50;;;22.75;16.91
74561;BME280;62979;55.720;37.606;2023-05-10T11:46:20;100428.34;;;22.63;17.04
74561;BME280;62979;55.720;37.606;2023-05-10T11:48:53;100431.50;;;22.56;16.82
74561;BME280;62979;55.720;37.606;2023-05-10T11:51:25;100420.84;;;22.27;17.63
74561;BME280;62979;55.720;37.606;2023-05-10T11:53:54;100432.63;;;22.23;17.29
74561;BME280;62979;55.720;37.606;2023-05-10T11:56:22;100427.25;;;22.09;17.67
74561;BME280;62979;55.720;37.606;2023-05-10T11:58:56;100418.03;;;21.70;18.00
74561;BME280;62979;55.720;37.606;2023-05-10T12:01:26;100423.72;;;21.64;17.68
74561;BME280;62979;55.720;37.606;2023-05-10T12:03:55;100418.34;;;21.49;17.92
74561;BME280;62979;55.720;37.606;2023-05-10T12:06:27;100414.72;;;21.50;17.88
74561;BME280;62979;55.720;37.606;2023-05-10T12:08:54;100417.81;;;21.58;17.98
74561;BME280;62979;55.720;37.606;2023-05-10T12:11:24;100413.97;;;21.48;17.90
74561;BME280;62979;55.720;37.606;2023-05-10T12:13:53;100414.38;;;21.56;18.58
74561;BME280;62979;55.720;37.606;2023-05-10T12:16:23;100413.16;;;21.62;18.67
74561;BME280;62979;55.720;37.606;2023-05-10T12:18:55;100413.59;;;21.70;18.15
74561;BME280;62979;55.720;37.606;2023-05-10T12:21:23;100408.41;;;21.67;18.69
74561;BME280;62979;55.720;37.606;2023-05-10T12:23:52;100412.00;;;21.52;17.95
74561;BME280;62979;55.720;37.606;2023-05-10T12:26:21;100405.75;;;21.67;18.08
74561;BME280;62979;55.720;37.606;2023-05-10T12:28:49;100405.75;;;21.67;19.11
74561;BME280;62979;55.720;37.606;2023-05-10T12:31:18;100397.16;;;21.78;18.51
74561;BME280;62979;55.720;37.606;2023-05-10T12:33:45;100401.91;;;21.87;18.26
74561;BME280;62979;55.720;37.606;2023-05-10T12:36:15;100397.91;;;21.94;18.70
74561;BME280;62979;55.720;37.606;2023-05-10T12:38:44;100396.03;;;21.96;18.32
74561;BME280;62979;55.720;37.606;2023-05-10T12:41:14;100382.25;;;21.90;18.81
74561;BME280;62979;55.720;37.606;2023-05-10T12:43:42;100397.38;;;22.18;18.63
74561;BME280;62979;55.720;37.606;2023-05-10T12:46:11;100401.75;;;22.19;18.45
74561;BME280;62979;55.720;37.606;2023-05-10T12:48:42;100389.66;;;22.13;18.79
74561;BME280;62979;55.720;37.606;2023-05-10T12:51:10;100396.72;;;22.00;18.00
74561;BME280;62979;55.720;37.606;2023-05-10T12:53:40;100404.84;;;21.97;18.68
74561;BME280;62979;55.720;37.606;2023-05-10T12:56:08;100401.38;;;21.66;18.91